createdAt,value
2022-10-01T00:02:51.415Z,2.45
2022-10-01T00:07:54.244Z,2.60
2022-10-01T00:12:58.884Z,2.67
2022-10-01T00:18:02.103Z,2.67
2022-10-01T00:23:04.929Z,2.75
2022-10-01T00:28:09.307Z,2.25
2022-10-01T00:33:12.080Z,1.90
2022-10-01T00:38:15.255Z,2.47
2022-10-01T00:43:23.941Z,2.40
2022-10-01T00:48:28.929Z,2.53
2022-10-01T00:53:31.750Z,2.80
2022-10-01T00:58:36.098Z,2.35
2022-10-01T01:03:39.279Z,2.53
2022-10-01T01:08:42.837Z,2.70
2022-10-01T01:13:58.617Z,2.63
2022-10-01T01:19:05.949Z,2.92
2022-10-01T01:24:47.209Z,2.55
2022-10-01T01:30:00.827Z,2.70
2022-10-01T01:35:08.206Z,2.70
2022-10-01T01:40:14.972Z,2.17
2022-10-01T01:45:24.343Z,1.67
2022-10-01T01:50:31.849Z,2.60
2022-10-01T01:55:37.694Z,2.33
2022-10-01T02:00:41.946Z,2.40
2022-10-01T02:05:56.381Z,3.03
2022-10-01T02:11:10.985Z,2.50
2022-10-01T02:16:23.788Z,2.40
2022-10-01T02:21:32.966Z,2.40
2022-10-01T02:26:37.487Z,3.00
2022-10-01T02:31:42.517Z,2.58
2022-10-01T02:36:46.561Z,2.97
2022-10-01T02:41:52.453Z,2.95
2022-10-01T02:47:01.614Z,2.80
2022-10-01T02:52:10.870Z,4.10
2022-10-01T02:57:27.557Z,3.50
2022-10-01T03:02:33.006Z,4.63
2022-10-01T03:07:36.561Z,4.85
2022-10-01T03:12:45.075Z,5.55
2022-10-01T03:17:51.905Z,4.55
2022-10-01T03:22:54.715Z,6.32
2022-10-01T03:33:02.884Z,5.50
2022-10-01T03:38:05.893Z,5.90
2022-10-01T03:43:08.673Z,5.68
2022-10-01T03:48:12.900Z,5.30
2022-10-01T03:53:16.027Z,5.05
2022-10-01T03:58:19.562Z,5.07
2022-10-01T04:03:23.847Z,5.35
2022-10-01T04:08:27.040Z,5.00
2022-10-01T04:13:31.246Z,4.78
2022-10-01T04:18:36.784Z,4.07
2022-10-01T04:23:39.636Z,4.88
2022-10-01T04:28:45.240Z,3.88
2022-10-01T04:33:49.488Z,4.10
2022-10-01T04:38:56.675Z,4.03
2022-10-01T04:44:02.604Z,3.40
2022-10-01T04:49:06.945Z,3.45
2022-10-01T04:54:09.689Z,5.05
2022-10-01T05:04:16.435Z,3.53
2022-10-01T05:09:19.283Z,3.60
2022-10-01T05:14:22.142Z,3.72
2022-10-01T05:19:28.955Z,3.40
2022-10-01T05:24:31.714Z,3.50
2022-10-01T05:34:40.014Z,3.45
2022-10-01T05:39:42.878Z,2.90
2022-10-01T05:44:46.514Z,3.05
2022-10-01T05:49:50.865Z,2.47
2022-10-01T05:54:53.686Z,3.17
2022-10-01T06:05:01.594Z,3.70
2022-10-01T06:10:05.070Z,3.30
2022-10-01T06:15:08.973Z,3.13
2022-10-01T06:20:19.147Z,3.20
2022-10-01T06:25:22.481Z,2.80
2022-10-01T06:30:27.254Z,2.47
2022-10-01T06:35:31.728Z,2.20
2022-10-01T06:40:34.781Z,1.90
2022-10-01T06:45:40.587Z,1.45
2022-10-01T06:50:46.045Z,1.20
2022-10-01T06:55:49.963Z,1.10
2022-10-01T07:00:53.735Z,1.20
2022-10-01T07:06:02.858Z,1.02
2022-10-01T07:11:06.008Z,1.52
2022-10-01T07:16:08.844Z,1.20
2022-10-01T07:21:13.054Z,0.77
2022-10-01T07:26:15.841Z,1.05
2022-10-01T07:36:22.870Z,1.23
2022-10-01T07:41:25.839Z,1.10
2022-10-01T07:46:32.701Z,1.20
2022-10-01T07:51:38.882Z,1.20
2022-10-01T07:56:42.084Z,1.35
2022-10-01T08:01:45.004Z,1.35
2022-10-01T08:06:50.061Z,1.50
2022-10-01T08:11:52.868Z,1.65
2022-10-01T08:16:56.127Z,1.58
2022-10-01T08:22:00.373Z,0.98
2022-10-01T08:27:03.199Z,1.88
2022-10-01T08:32:06.071Z,1.67
2022-10-01T08:37:10.264Z,1.88
2022-10-01T08:42:27.682Z,2.20
2022-10-01T08:47:35.991Z,2.17
2022-10-01T08:52:49.574Z,2.45
2022-10-01T08:57:57.388Z,2.15
2022-10-01T09:03:05.604Z,2.85
2022-10-01T09:08:21.372Z,2.55
2022-10-01T09:13:51.700Z,2.67
2022-10-01T09:19:11.737Z,2.35
2022-10-01T09:24:18.086Z,3.38
2022-10-01T09:29:28.288Z,4.07
2022-10-01T09:34:36.446Z,4.32
2022-10-01T09:39:50.909Z,4.20
2022-10-01T09:44:53.905Z,5.30
2022-10-01T09:50:01.365Z,5.82
2022-10-01T09:55:23.070Z,6.10
2022-10-01T10:00:28.430Z,6.78
2022-10-01T10:05:42.303Z,7.00
2022-10-01T10:10:53.440Z,6.78
2022-10-01T10:15:58.523Z,7.78
2022-10-01T10:21:07.468Z,8.68
2022-10-01T10:26:20.940Z,8.48
2022-10-01T10:31:25.679Z,9.13
2022-10-01T10:36:31.360Z,8.75
2022-10-01T10:41:36.115Z,7.93
2022-10-01T10:46:45.330Z,7.40
2022-10-01T10:51:51.345Z,6.45
2022-10-01T10:57:02.488Z,7.50
2022-10-01T11:02:08.931Z,7.88
2022-10-01T11:07:15.328Z,6.82
2022-10-01T11:12:35.350Z,3.40
2022-10-01T11:18:10.610Z,4.72
2022-10-01T11:23:36.758Z,6.05
2022-10-01T11:28:55.116Z,6.10
2022-10-01T11:34:13.705Z,5.38
2022-10-01T11:39:19.629Z,5.13
2022-10-01T11:44:31.300Z,5.00
2022-10-01T11:49:48.765Z,4.80
2022-10-01T11:55:21.682Z,4.90
2022-10-01T12:00:27.450Z,4.45
2022-10-01T12:05:32.903Z,4.70
2022-10-01T12:10:39.942Z,4.15
2022-10-01T12:15:49.346Z,4.00
2022-10-01T12:20:55.320Z,4.25
2022-10-01T12:26:08.111Z,3.63
2022-10-01T12:31:20.920Z,3.60
2022-10-01T12:36:36.660Z,4.78
2022-10-01T12:41:50.824Z,4.18
2022-10-01T12:47:08.354Z,3.88
2022-10-01T12:52:24.408Z,3.70
2022-10-01T12:57:39.307Z,2.78
2022-10-01T13:03:13.204Z,2.08
2022-10-01T13:08:34.755Z,1.85
2022-10-01T13:13:38.654Z,2.88
2022-10-01T13:18:55.519Z,3.10
2022-10-01T13:24:03.171Z,2.40
2022-10-01T13:29:22.582Z,2.17
2022-10-01T13:34:36.736Z,2.20
2022-10-01T13:39:42.098Z,1.83
2022-10-01T13:44:45.140Z,0.88
2022-10-01T13:49:57.078Z,1.15
2022-10-01T13:55:02.250Z,0.77
2022-10-01T14:00:23.212Z,1.20
2022-10-01T14:05:34.846Z,0.80
2022-10-01T14:11:01.909Z,1.50
2022-10-01T14:16:05.546Z,1.10
2022-10-01T14:21:25.705Z,1.17
2022-10-01T14:26:38.078Z,1.17
2022-10-01T14:31:52.239Z,1.00
2022-10-01T14:36:57.204Z,1.30
2022-10-01T14:42:00.212Z,1.58
2022-10-01T14:47:14.156Z,1.20
2022-10-01T14:52:25.671Z,1.58
2022-10-01T14:57:33.965Z,1.40
2022-10-01T15:02:46.873Z,1.70
2022-10-01T15:07:51.823Z,1.80
2022-10-01T15:12:56.274Z,1.65
2022-10-01T15:17:59.374Z,1.23
2022-10-01T15:23:06.911Z,1.60
2022-10-01T15:28:14.995Z,1.60
2022-10-01T15:33:27.472Z,2.28
2022-10-01T15:38:33.210Z,1.92
2022-10-01T15:43:37.369Z,2.55
2022-10-01T15:48:40.345Z,1.60
2022-10-01T15:53:45.908Z,1.70
2022-10-01T15:58:52.209Z,1.60
2022-10-01T16:03:57.791Z,1.90
2022-10-01T16:09:06.827Z,2.15
2022-10-01T16:14:22.761Z,2.22
2022-10-01T16:19:30.914Z,2.22
2022-10-01T16:24:43.361Z,2.08
2022-10-01T16:29:53.585Z,2.33
2022-10-01T16:35:16.654Z,3.00
2022-10-01T16:40:22.568Z,2.83
2022-10-01T16:45:27.804Z,2.50
2022-10-01T16:50:30.817Z,3.28
2022-10-01T16:55:37.953Z,3.33
2022-10-01T17:00:40.823Z,2.67
2022-10-01T17:05:43.964Z,2.63
2022-10-01T17:10:53.672Z,2.05
2022-10-01T17:16:00.923Z,2.33
2022-10-01T17:21:04.600Z,3.28
2022-10-01T17:26:10.010Z,3.97
2022-10-01T17:31:18.060Z,3.10
2022-10-01T17:36:21.233Z,2.95
2022-10-01T17:41:25.484Z,3.95
2022-10-01T17:46:28.255Z,4.70
2022-10-01T17:51:31.175Z,4.18
2022-10-01T17:56:35.717Z,3.63
2022-10-01T18:01:39.725Z,4.40
2022-10-01T18:06:43.738Z,4.00
2022-10-01T18:11:48.037Z,3.95
2022-10-01T18:16:50.916Z,3.40
2022-10-01T18:21:53.864Z,3.47
2022-10-01T18:26:58.061Z,3.83
2022-10-01T18:32:07.639Z,4.18
2022-10-01T18:37:25.807Z,4.78
2022-10-01T18:42:34.999Z,4.97
2022-10-01T18:47:43.864Z,5.10
2022-10-01T18:53:02.871Z,4.82
2022-10-01T18:58:25.412Z,4.00
2022-10-01T19:03:49.987Z,4.22
2022-10-01T19:09:06.302Z,3.60
2022-10-01T19:14:39.664Z,5.00
2022-10-01T19:19:48.709Z,4.60
2022-10-01T19:25:00.732Z,4.07
2022-10-01T19:30:09.490Z,3.50
2022-10-01T19:35:20.226Z,5.20
2022-10-01T19:40:32.344Z,3.00
2022-10-01T19:45:45.697Z,3.70
2022-10-01T19:50:54.545Z,3.60
2022-10-01T19:56:00.994Z,3.58
2022-10-01T20:01:05.753Z,3.50
2022-10-01T20:06:19.056Z,2.95
2022-10-01T20:11:30.330Z,4.10
2022-10-01T20:16:41.319Z,2.67
2022-10-01T20:21:55.321Z,3.20
2022-10-01T20:27:11.842Z,2.60
2022-10-01T20:32:22.363Z,3.42
2022-10-01T20:37:43.424Z,3.47
2022-10-01T20:42:51.248Z,2.92
2022-10-01T20:48:00.054Z,3.45
2022-10-01T20:53:13.858Z,3.17
2022-10-01T20:58:23.813Z,2.90
2022-10-01T21:03:34.425Z,3.80
2022-10-01T21:08:46.468Z,4.35
2022-10-01T21:13:56.580Z,3.03
2022-10-01T21:19:12.913Z,2.97
2022-10-01T21:24:34.858Z,3.05
2022-10-01T21:29:52.344Z,3.65
2022-10-01T21:35:06.273Z,3.70
2022-10-01T21:40:22.959Z,2.17
2022-10-01T21:45:33.905Z,3.53
2022-10-01T21:50:55.193Z,2.70
2022-10-01T21:56:13.680Z,2.75
2022-10-01T22:01:21.660Z,2.20
2022-10-01T22:06:33.271Z,2.60
2022-10-01T22:11:40.400Z,1.95
2022-10-01T22:16:51.633Z,3.40
2022-10-01T22:22:02.718Z,2.05
2022-10-01T22:27:11.633Z,1.95
2022-10-01T22:32:18.722Z,2.05
2022-10-01T22:37:27.861Z,1.50
2022-10-01T22:42:36.274Z,1.70
2022-10-01T22:47:51.738Z,1.42
2022-10-01T22:53:07.814Z,1.65
2022-10-01T22:58:25.664Z,1.90
2022-10-01T23:03:42.378Z,1.70
2022-10-01T23:08:51.796Z,1.48
2022-10-01T23:14:06.021Z,1.52
2022-10-01T23:19:26.404Z,2.10
2022-10-01T23:24:44.525Z,2.00
2022-10-01T23:30:03.654Z,1.90
2022-10-01T23:35:14.646Z,2.40
2022-10-01T23:40:21.451Z,2.20
2022-10-01T23:45:28.327Z,3.03
2022-10-01T23:50:35.708Z,3.38
2022-10-01T23:56:36.112Z,3.67
